Hobart International Airport

Airport
ICAO code: 
YMHB
IATA Code: 
HBA
Summary
ICAO Region: 
APAC
Territory: 
Location: 
Cambridge, Tasmania
Serving: 
Hobart
Elevation: 
13 ft
Coordinates: 
Aerial View: 
42° 50' 13.475" S, 147° 30' 19.547" E
Metar
Observation
YMHB 281430Z AUTO 32007KT 9999 // NCD 12/10 Q1022 RF00.0/000.0
Station
Hobart Airport
Date/Time
2021-11-28 14:30:00
Wind direction
320°
Wind speed
07 kts
Lowest cloud amount
no clouds detected
Temperature
12°C
Dew point
10°C
Humidity
87%
QNH
1022 hPa
Weather condition
n/a

Hobart International Airport is an airport located in Cambridge, 17 kilometres east of Hobart, Tasmania.

Climatology

Mild temperate oceanic climate (Köppen climate classification Cfb).

Runways

Designator Length Width Surface Rops
12/30 2251 45 ASP Yes/Yes
Airport map: 
Aerial View: 

Accidents and Serious Incidents at or in the vicinity of YMHB

SKYbrary Partners:

Safety knowledge contributed by: